createdAt,value
2023-05-05T00:24:30.463Z,15.55
2023-05-05T00:54:33.910Z,15.31
2023-05-05T01:25:00.239Z,14.72
2023-05-05T01:55:05.154Z,14.78
2023-05-05T02:25:09.258Z,14.24
2023-05-05T02:55:12.164Z,14.55
2023-05-05T03:25:15.299Z,15.40
2023-05-05T03:55:18.469Z,15.28
2023-05-05T04:25:21.360Z,15.30
2023-05-05T04:55:24.294Z,15.67
2023-05-05T05:25:27.437Z,15.70
2023-05-05T05:55:30.406Z,16.84
2023-05-05T06:25:33.361Z,17.76
2023-05-05T06:55:36.318Z,18.05
2023-05-05T07:25:39.390Z,18.40
2023-05-05T07:55:42.491Z,19.63
2023-05-05T08:25:46.014Z,20.33
2023-05-05T08:55:51.064Z,22.24
2023-05-05T09:26:04.824Z,24.24
2023-05-05T09:56:08.547Z,25.00
2023-05-05T10:26:13.769Z,24.80
2023-05-05T10:56:22.277Z,26.84
2023-05-05T11:26:50.476Z,23.58
2023-05-05T11:56:54.590Z,27.11
2023-05-05T12:27:07.333Z,26.56
2023-05-05T12:57:14.416Z,25.05
2023-05-05T13:27:17.522Z,24.59
2023-05-05T13:57:20.511Z,23.08
2023-05-05T14:27:23.884Z,21.83
2023-05-05T14:57:26.973Z,21.24
2023-05-05T15:27:30.008Z,21.69
2023-05-05T15:57:33.194Z,21.30
2023-05-05T16:27:36.351Z,19.82
2023-05-05T16:57:39.444Z,20.31
2023-05-05T17:27:43.503Z,19.18
2023-05-05T17:57:46.562Z,18.83
2023-05-05T18:27:49.622Z,18.68
2023-05-05T18:57:52.606Z,18.11
2023-05-05T19:27:55.597Z,17.73
2023-05-05T19:57:58.613Z,17.08
2023-05-05T20:28:01.732Z,16.40
2023-05-05T20:58:05.433Z,15.99
2023-05-05T21:28:08.191Z,15.65
2023-05-05T21:58:11.129Z,15.25
2023-05-05T22:28:14.087Z,14.79
2023-05-05T22:58:16.976Z,14.67
2023-05-05T23:28:20.126Z,14.77
2023-05-05T23:58:23.002Z,14.41
